Aviation Digital Data Service (ADDS)

Output produced by METARs form (0340 UTC 19 August 2019)
found at http://www.aviationweather.gov/metar/data/
 
METAR text: EBCI 190320Z 21007KT CAVOK 12/10 Q1014 NOSIG
Conditions at: EBCI (CHARLEROI/GOSSEL, BE) observed 0320 UTC 19 August 2019
Temperature: 12.0°C (54°F)
Dewpoint: 10.0°C (50°F) [RH = 88%]
Pressure (altimeter): 29.94 inches Hg (1014.0 mb)
Winds: from the SSW (210 degrees) at 8 MPH (7 knots; 3.6 m/s)
Visibility: 6 or more miles (10+ km)
Ceiling: ceiling and visibility are OK
Clouds: unknown
Weather: no significant weather observed at this time

METAR text: EBCI 190250Z 20007KT CAVOK 12/10 Q1014 NOSIG
Conditions at: EBCI (CHARLEROI/GOSSEL, BE) observed 0250 UTC 19 August 2019
Temperature: 12.0°C (54°F)
Dewpoint: 10.0°C (50°F) [RH = 88%]
Pressure (altimeter): 29.94 inches Hg (1014.0 mb)
Winds: from the SSW (200 degrees) at 8 MPH (7 knots; 3.6 m/s)
Visibility: 6 or more miles (10+ km)
Ceiling: ceiling and visibility are OK
Clouds: unknown
Weather: no significant weather observed at this time

METAR text: EBCI 190220Z 21007KT CAVOK 12/10 Q1014 NOSIG
Conditions at: EBCI (CHARLEROI/GOSSEL, BE) observed 0220 UTC 19 August 2019
Temperature: 12.0°C (54°F)
Dewpoint: 10.0°C (50°F) [RH = 88%]
Pressure (altimeter): 29.94 inches Hg (1014.0 mb)
Winds: from the SSW (210 degrees) at 8 MPH (7 knots; 3.6 m/s)
Visibility: 6 or more miles (10+ km)
Ceiling: ceiling and visibility are OK
Clouds: unknown
Weather: no significant weather observed at this time

METAR text: EBCI 190150Z 21007KT CAVOK 12/11 Q1014 NOSIG
Conditions at: EBCI (CHARLEROI/GOSSEL, BE) observed 0150 UTC 19 August 2019
Temperature: 12.0°C (54°F)
Dewpoint: 11.0°C (52°F) [RH = 94%]
Pressure (altimeter): 29.94 inches Hg (1014.0 mb)
Winds: from the SSW (210 degrees) at 8 MPH (7 knots; 3.6 m/s)
Visibility: 6 or more miles (10+ km)
Ceiling: ceiling and visibility are OK
Clouds: unknown
Weather: no significant weather observed at this time

METAR text: EBCI 190120Z 20006KT CAVOK 12/11 Q1014 NOSIG
Conditions at: EBCI (CHARLEROI/GOSSEL, BE) observed 0120 UTC 19 August 2019
Temperature: 12.0°C (54°F)
Dewpoint: 11.0°C (52°F) [RH = 94%]
Pressure (altimeter): 29.94 inches Hg (1014.0 mb)
Winds: from the SSW (200 degrees) at 7 MPH (6 knots; 3.1 m/s)
Visibility: 6 or more miles (10+ km)
Ceiling: ceiling and visibility are OK
Clouds: unknown
Weather: no significant weather observed at this time

METAR text: EBCI 190050Z 20006KT CAVOK 12/11 Q1014 NOSIG
Conditions at: EBCI (CHARLEROI/GOSSEL, BE) observed 0050 UTC 19 August 2019
Temperature: 12.0°C (54°F)
Dewpoint: 11.0°C (52°F) [RH = 94%]
Pressure (altimeter): 29.94 inches Hg (1014.0 mb)
Winds: from the SSW (200 degrees) at 7 MPH (6 knots; 3.1 m/s)
Visibility: 6 or more miles (10+ km)
Ceiling: ceiling and visibility are OK
Clouds: unknown
Weather: no significant weather observed at this time

METAR text: EBCI 190020Z 21007KT CAVOK 13/11 Q1014 NOSIG
Conditions at: EBCI (CHARLEROI/GOSSEL, BE) observed 0020 UTC 19 August 2019
Temperature: 13.0°C (55°F)
Dewpoint: 11.0°C (52°F) [RH = 88%]
Pressure (altimeter): 29.94 inches Hg (1014.0 mb)
Winds: from the SSW (210 degrees) at 8 MPH (7 knots; 3.6 m/s)
Visibility: 6 or more miles (10+ km)
Ceiling: ceiling and visibility are OK
Clouds: unknown
Weather: no significant weather observed at this time

METAR text: EBCI 182350Z 21007KT CAVOK 13/11 Q1014 NOSIG
Conditions at: EBCI (CHARLEROI/GOSSEL, BE) observed 2350 UTC 18 August 2019
Temperature: 13.0°C (55°F)
Dewpoint: 11.0°C (52°F) [RH = 88%]
Pressure (altimeter): 29.94 inches Hg (1014.0 mb)
Winds: from the SSW (210 degrees) at 8 MPH (7 knots; 3.6 m/s)
Visibility: 6 or more miles (10+ km)
Ceiling: ceiling and visibility are OK
Clouds: unknown
Weather: no significant weather observed at this time

METAR text: EBCI 182250Z 23007KT CAVOK 14/10 Q1013 NOSIG
Conditions at: EBCI (CHARLEROI/GOSSEL, BE) observed 2250 UTC 18 August 2019
Temperature: 14.0°C (57°F)
Dewpoint: 10.0°C (50°F) [RH = 77%]
Pressure (altimeter): 29.91 inches Hg (1013.0 mb)
Winds: from the SW (230 degrees) at 8 MPH (7 knots; 3.6 m/s)
Visibility: 6 or more miles (10+ km)
Ceiling: ceiling and visibility are OK
Clouds: unknown
Weather: no significant weather observed at this time

METAR text: EBCI 182220Z 24006KT CAVOK 14/11 Q1013 NOSIG
Conditions at: EBCI (CHARLEROI/GOSSEL, BE) observed 2220 UTC 18 August 2019
Temperature: 14.0°C (57°F)
Dewpoint: 11.0°C (52°F) [RH = 82%]
Pressure (altimeter): 29.91 inches Hg (1013.0 mb)
Winds: from the WSW (240 degrees) at 7 MPH (6 knots; 3.1 m/s)
Visibility: 6 or more miles (10+ km)
Ceiling: ceiling and visibility are OK
Clouds: unknown
Weather: no significant weather observed at this time

METAR text: EBCI 182150Z 22006KT CAVOK 14/11 Q1012 NOSIG
Conditions at: EBCI (CHARLEROI/GOSSEL, BE) observed 2150 UTC 18 August 2019
Temperature: 14.0°C (57°F)
Dewpoint: 11.0°C (52°F) [RH = 82%]
Pressure (altimeter): 29.88 inches Hg (1012.0 mb)
Winds: from the SW (220 degrees) at 7 MPH (6 knots; 3.1 m/s)
Visibility: 6 or more miles (10+ km)
Ceiling: ceiling and visibility are OK
Clouds: unknown
Weather: no significant weather observed at this time

METAR text: EBCI 182120Z 21006KT CAVOK 14/11 Q1013 NOSIG
Conditions at: EBCI (CHARLEROI/GOSSEL, BE) observed 2120 UTC 18 August 2019
Temperature: 14.0°C (57°F)
Dewpoint: 11.0°C (52°F) [RH = 82%]
Pressure (altimeter): 29.91 inches Hg (1013.0 mb)
Winds: from the SSW (210 degrees) at 7 MPH (6 knots; 3.1 m/s)
Visibility: 6 or more miles (10+ km)
Ceiling: ceiling and visibility are OK
Clouds: unknown
Weather: no significant weather observed at this time

METAR text: EBCI 182050Z 21005KT 9999 FEW030 15/10 Q1012 NOSIG
Conditions at: EBCI (CHARLEROI/GOSSEL, BE) observed 2050 UTC 18 August 2019
Temperature: 15.0°C (59°F)
Dewpoint: 10.0°C (50°F) [RH = 72%]
Pressure (altimeter): 29.88 inches Hg (1012.0 mb)
Winds: from the SSW (210 degrees) at 6 MPH (5 knots; 2.6 m/s)
Visibility: 6 or more miles (10+ km)
Ceiling: at least 12,000 feet AGL
Clouds: few clouds at 3000 feet AGL
Weather: no significant weather observed at this time

METAR text: EBCI 182020Z 22004KT 9999 FEW030 15/10 Q1012 NOSIG
Conditions at: EBCI (CHARLEROI/GOSSEL, BE) observed 2020 UTC 18 August 2019
Temperature: 15.0°C (59°F)
Dewpoint: 10.0°C (50°F) [RH = 72%]
Pressure (altimeter): 29.88 inches Hg (1012.0 mb)
Winds: from the SW (220 degrees) at 5 MPH (4 knots; 2.1 m/s)
Visibility: 6 or more miles (10+ km)
Ceiling: at least 12,000 feet AGL
Clouds: few clouds at 3000 feet AGL
Weather: no significant weather observed at this time

METAR text: EBCI 181950Z 24006KT 9999 FEW027 15/10 Q1012 NOSIG
Conditions at: EBCI (CHARLEROI/GOSSEL, BE) observed 1950 UTC 18 August 2019
Temperature: 15.0°C (59°F)
Dewpoint: 10.0°C (50°F) [RH = 72%]
Pressure (altimeter): 29.88 inches Hg (1012.0 mb)
Winds: from the WSW (240 degrees) at 7 MPH (6 knots; 3.1 m/s)
Visibility: 6 or more miles (10+ km)
Ceiling: at least 12,000 feet AGL
Clouds: few clouds at 2700 feet AGL
Weather: no significant weather observed at this time

METAR text: EBCI 181920Z 25006KT 9999 FEW027 16/10 Q1011 NOSIG
Conditions at: EBCI (CHARLEROI/GOSSEL, BE) observed 1920 UTC 18 August 2019
Temperature: 16.0°C (61°F)
Dewpoint: 10.0°C (50°F) [RH = 68%]
Pressure (altimeter): 29.85 inches Hg (1011.0 mb)
Winds: from the WSW (250 degrees) at 7 MPH (6 knots; 3.1 m/s)
Visibility: 6 or more miles (10+ km)
Ceiling: at least 12,000 feet AGL
Clouds: few clouds at 2700 feet AGL
Weather: no significant weather observed at this time

METAR text: EBCI 181850Z 26008KT 230V290 9999 FEW027 16/10 Q1011 NOSIG
Conditions at: EBCI (CHARLEROI/GOSSEL, BE) observed 1850 UTC 18 August 2019
Temperature: 16.0°C (61°F)
Dewpoint: 10.0°C (50°F) [RH = 68%]
Pressure (altimeter): 29.85 inches Hg (1011.0 mb)
Winds: from the W (260 degrees) at 9 MPH (8 knots; 4.1 m/s)
Visibility: 6 or more miles (10+ km)
Ceiling: at least 12,000 feet AGL
Clouds: few clouds at 2700 feet AGL
Weather: no significant weather observed at this time

METAR text: EBCI 181820Z 25010KT 9999 FEW027 18/10 Q1011 NOSIG
Conditions at: EBCI (CHARLEROI/GOSSEL, BE) observed 1820 UTC 18 August 2019
Temperature: 18.0°C (64°F)
Dewpoint: 10.0°C (50°F) [RH = 59%]
Pressure (altimeter): 29.85 inches Hg (1011.0 mb)
Winds: from the WSW (250 degrees) at 12 MPH (10 knots; 5.1 m/s)
Visibility: 6 or more miles (10+ km)
Ceiling: at least 12,000 feet AGL
Clouds: few clouds at 2700 feet AGL
Weather: no significant weather observed at this time

METAR text: EBCI 181750Z 25011KT 9999 FEW027 19/11 Q1010 NOSIG
Conditions at: EBCI (CHARLEROI/GOSSEL, BE) observed 1750 UTC 18 August 2019
Temperature: 19.0°C (66°F)
Dewpoint: 11.0°C (52°F) [RH = 60%]
Pressure (altimeter): 29.82 inches Hg (1010.0 mb)
Winds: from the WSW (250 degrees) at 13 MPH (11 knots; 5.7 m/s)
Visibility: 6 or more miles (10+ km)
Ceiling: at least 12,000 feet AGL
Clouds: few clouds at 2700 feet AGL
Weather: no significant weather observed at this time

METAR text: EBCI 181720Z 24012KT 9999 SCT025 19/14 Q1010 NOSIG
Conditions at: EBCI (CHARLEROI/GOSSEL, BE) observed 1720 UTC 18 August 2019
Temperature: 19.0°C (66°F)
Dewpoint: 14.0°C (57°F) [RH = 73%]
Pressure (altimeter): 29.82 inches Hg (1010.0 mb)
Winds: from the WSW (240 degrees) at 14 MPH (12 knots; 6.2 m/s)
Visibility: 6 or more miles (10+ km)
Ceiling: at least 12,000 feet AGL
Clouds: scattered clouds at 2500 feet AGL
Weather: no significant weather observed at this time

METAR text: EBCI 181650Z 25012KT 220V280 9999 FEW029 20/13 Q1010 NOSIG
Conditions at: EBCI (CHARLEROI/GOSSEL, BE) observed 1650 UTC 18 August 2019
Temperature: 20.0°C (68°F)
Dewpoint: 13.0°C (55°F) [RH = 64%]
Pressure (altimeter): 29.82 inches Hg (1010.0 mb)
Winds: from the WSW (250 degrees) at 14 MPH (12 knots; 6.2 m/s)
Visibility: 6 or more miles (10+ km)
Ceiling: at least 12,000 feet AGL
Clouds: few clouds at 2900 feet AGL
Weather: no significant weather observed at this time

METAR text: EBCI 181620Z 25011KT 210V270 9999 FEW027 20/13 Q1009 NOSIG
Conditions at: EBCI (CHARLEROI/GOSSEL, BE) observed 1620 UTC 18 August 2019
Temperature: 20.0°C (68°F)
Dewpoint: 13.0°C (55°F) [RH = 64%]
Pressure (altimeter): 29.79 inches Hg (1009.0 mb)
Winds: from the WSW (250 degrees) at 13 MPH (11 knots; 5.7 m/s)
Visibility: 6 or more miles (10+ km)
Ceiling: at least 12,000 feet AGL
Clouds: few clouds at 2700 feet AGL
Weather: no significant weather observed at this time

METAR text: EBCI 181550Z 24009KT 9999 FEW024 20/15 Q1009 NOSIG
Conditions at: EBCI (CHARLEROI/GOSSEL, BE) observed 1550 UTC 18 August 2019
Temperature: 20.0°C (68°F)
Dewpoint: 15.0°C (59°F) [RH = 73%]
Pressure (altimeter): 29.79 inches Hg (1009.0 mb)
Winds: from the WSW (240 degrees) at 10 MPH (9 knots; 4.6 m/s)
Visibility: 6 or more miles (10+ km)
Ceiling: at least 12,000 feet AGL
Clouds: few clouds at 2400 feet AGL
Weather: no significant weather observed at this time

METAR text: EBCI 181520Z 24013KT 9999 FEW018 19/14 Q1009 NOSIG
Conditions at: EBCI (CHARLEROI/GOSSEL, BE) observed 1520 UTC 18 August 2019
Temperature: 19.0°C (66°F)
Dewpoint: 14.0°C (57°F) [RH = 73%]
Pressure (altimeter): 29.79 inches Hg (1009.0 mb)
Winds: from the WSW (240 degrees) at 15 MPH (13 knots; 6.7 m/s)
Visibility: 6 or more miles (10+ km)
Ceiling: at least 12,000 feet AGL
Clouds: few clouds at 1800 feet AGL
Weather: no significant weather observed at this time

METAR text: EBCI 181450Z 23011KT 9999 FEW018 SCT045 19/15 Q1009 NOSIG
Conditions at: EBCI (CHARLEROI/GOSSEL, BE) observed 1450 UTC 18 August 2019
Temperature: 19.0°C (66°F)
Dewpoint: 15.0°C (59°F) [RH = 78%]
Pressure (altimeter): 29.79 inches Hg (1009.0 mb)
Winds: from the SW (230 degrees) at 13 MPH (11 knots; 5.7 m/s)
Visibility: 6 or more miles (10+ km)
Ceiling: at least 12,000 feet AGL
Clouds: few clouds at 1800 feet AGL
scattered clouds at 4500 feet AGL
Weather: no significant weather observed at this time

METAR text: EBCI 181420Z 24011KT 9999 FEW018 BKN036 18/15 Q1009 NOSIG
Conditions at: EBCI (CHARLEROI/GOSSEL, BE) observed 1420 UTC 18 August 2019
Temperature: 18.0°C (64°F)
Dewpoint: 15.0°C (59°F) [RH = 83%]
Pressure (altimeter): 29.79 inches Hg (1009.0 mb)
Winds: from the WSW (240 degrees) at 13 MPH (11 knots; 5.7 m/s)
Visibility: 6 or more miles (10+ km)
Ceiling: 3600 feet AGL
Clouds: few clouds at 1800 feet AGL
broken clouds at 3600 feet AGL
Weather: no significant weather observed at this time

METAR text: EBCI 181350Z 24011KT 9999 FEW017 BKN021 18/15 Q1009 NOSIG
Conditions at: EBCI (CHARLEROI/GOSSEL, BE) observed 1350 UTC 18 August 2019
Temperature: 18.0°C (64°F)
Dewpoint: 15.0°C (59°F) [RH = 83%]
Pressure (altimeter): 29.79 inches Hg (1009.0 mb)
Winds: from the WSW (240 degrees) at 13 MPH (11 knots; 5.7 m/s)
Visibility: 6 or more miles (10+ km)
Ceiling: 2100 feet AGL
Clouds: few clouds at 1700 feet AGL
broken clouds at 2100 feet AGL
Weather: no significant weather observed at this time

METAR text: EBCI 181320Z 26009KT 220V290 9999 FEW015 BKN021 17/15 Q1008 NOSIG
Conditions at: EBCI (CHARLEROI/GOSSEL, BE) observed 1320 UTC 18 August 2019
Temperature: 17.0°C (63°F)
Dewpoint: 15.0°C (59°F) [RH = 88%]
Pressure (altimeter): 29.76 inches Hg (1008.0 mb)
Winds: from the W (260 degrees) at 10 MPH (9 knots; 4.6 m/s)
Visibility: 6 or more miles (10+ km)
Ceiling: 2100 feet AGL
Clouds: few clouds at 1500 feet AGL
broken clouds at 2100 feet AGL
Weather: no significant weather observed at this time

METAR text: EBCI 181250Z 25011KT 9999 FEW009 BKN021 17/16 Q1007 NOSIG
Conditions at: EBCI (CHARLEROI/GOSSEL, BE) observed 1250 UTC 18 August 2019
Temperature: 17.0°C (63°F)
Dewpoint: 16.0°C (61°F) [RH = 94%]
Pressure (altimeter): 29.73 inches Hg (1007.0 mb)
Winds: from the WSW (250 degrees) at 13 MPH (11 knots; 5.7 m/s)
Visibility: 6 or more miles (10+ km)
Ceiling: 2100 feet AGL
Clouds: few clouds at 900 feet AGL
broken clouds at 2100 feet AGL
Weather: no significant weather observed at this time

METAR text: EBCI 181220Z 25011KT 9999 SCT005 BKN009 17/16 Q1007 BECMG BKN015
Conditions at: EBCI (CHARLEROI/GOSSEL, BE) observed 1220 UTC 18 August 2019
Temperature: 17.0°C (63°F)
Dewpoint: 16.0°C (61°F) [RH = 94%]
Pressure (altimeter): 29.73 inches Hg (1007.0 mb)
Winds: from the WSW (250 degrees) at 13 MPH (11 knots; 5.7 m/s)
Visibility: 6 or more miles (10+ km)
Ceiling: 900 feet AGL
Clouds: scattered clouds at 500 feet AGL
broken clouds at 900 feet AGL
Weather: no significant weather observed at this time

METAR text: EBCI 181150Z 25009KT 3000 -SHRA SCT003 BKN005 16/16 Q1007 TEMPO 3000 RA BKN005
Conditions at: EBCI (CHARLEROI/GOSSEL, BE) observed 1150 UTC 18 August 2019
Temperature: 16.0°C (61°F)
Dewpoint: 16.0°C (61°F) [RH = 100%]
Pressure (altimeter): 29.73 inches Hg (1007.0 mb)
Winds: from the WSW (250 degrees) at 10 MPH (9 knots; 4.6 m/s)
Visibility: 1.86 miles (2.99 km)
Ceiling: 500 feet AGL
Clouds: scattered clouds at 300 feet AGL
broken clouds at 500 feet AGL
Weather: -SHRA  (light rain showers)

METAR text: EBCI 181120Z 23012KT 2500 -SHRA SCT003 BKN005 17/16 Q1007 TEMPO 3000 RA BKN005
Conditions at: EBCI (CHARLEROI/GOSSEL, BE) observed 1120 UTC 18 August 2019
Temperature: 17.0°C (63°F)
Dewpoint: 16.0°C (61°F) [RH = 94%]
Pressure (altimeter): 29.73 inches Hg (1007.0 mb)
Winds: from the SW (230 degrees) at 14 MPH (12 knots; 6.2 m/s)
Visibility: 1.55 miles (2.49 km)
Ceiling: 500 feet AGL
Clouds: scattered clouds at 300 feet AGL
broken clouds at 500 feet AGL
Weather: -SHRA  (light rain showers)

METAR text: EBCI 181050Z 23010KT 9999 SCT007 BKN009 17/16 Q1006 TEMPO 3000 RA BKN005
Conditions at: EBCI (CHARLEROI/GOSSEL, BE) observed 1050 UTC 18 August 2019
Temperature: 17.0°C (63°F)
Dewpoint: 16.0°C (61°F) [RH = 94%]
Pressure (altimeter): 29.70 inches Hg (1006.0 mb)
Winds: from the SW (230 degrees) at 12 MPH (10 knots; 5.1 m/s)
Visibility: 6 or more miles (10+ km)
Ceiling: 900 feet AGL
Clouds: scattered clouds at 700 feet AGL
broken clouds at 900 feet AGL
Weather: no significant weather observed at this time

METAR text: EBCI 181020Z 23007KT 200V260 9999 SCT005 SCT007 BKN027 17/16 Q1005 RERA TEMPO 3000 RA BKN005
Conditions at: EBCI (CHARLEROI/GOSSEL, BE) observed 1020 UTC 18 August 2019
Temperature: 17.0°C (63°F)
Dewpoint: 16.0°C (61°F) [RH = 94%]
Pressure (altimeter): 29.68 inches Hg (1005.0 mb)
Winds: from the SW (230 degrees) at 8 MPH (7 knots; 3.6 m/s)
Visibility: 6 or more miles (10+ km)
Ceiling: 2700 feet AGL
Clouds: scattered clouds at 500 feet AGL
scattered clouds at 700 feet AGL
broken clouds at 2700 feet AGL
Weather: no significant weather observed at this time

METAR text: EBCI 180950Z 22007KT 9999 -RA FEW002 BKN027 16/15 Q1005 TEMPO 3000 RA BKN006
Conditions at: EBCI (CHARLEROI/GOSSEL, BE) observed 0950 UTC 18 August 2019
Temperature: 16.0°C (61°F)
Dewpoint: 15.0°C (59°F) [RH = 94%]
Pressure (altimeter): 29.68 inches Hg (1005.0 mb)
Winds: from the SW (220 degrees) at 8 MPH (7 knots; 3.6 m/s)
Visibility: 6 or more miles (10+ km)
Ceiling: 2700 feet AGL
Clouds: few clouds at 200 feet AGL
broken clouds at 2700 feet AGL
Weather: -RA  (light rain)

METAR text: EBCI 180920Z VRB02KT 9999 -RA FEW002 BKN038 15/15 Q1004 REDZ TEMPO 1200 RADZ BKN001
Conditions at: EBCI (CHARLEROI/GOSSEL, BE) observed 0920 UTC 18 August 2019
Temperature: 15.0°C (59°F)
Dewpoint: 15.0°C (59°F) [RH = 100%]
Pressure (altimeter): 29.65 inches Hg (1004.0 mb)
Winds: variable direction winds at 2 MPH (2 knots; 1.0 m/s)
Visibility: 6 or more miles (10+ km)
Ceiling: 3800 feet AGL
Clouds: few clouds at 200 feet AGL
broken clouds at 3800 feet AGL
Weather: -RA  (light rain)

METAR text: EBCI 180850Z 32006KT 270V060 2200 RADZ SCT001 BKN002 BKN020 14/14 Q1005 TEMPO 1200 RADZ BKN001
Conditions at: EBCI (CHARLEROI/GOSSEL, BE) observed 0850 UTC 18 August 2019
Temperature: 14.0°C (57°F)
Dewpoint: 14.0°C (57°F) [RH = 100%]
Pressure (altimeter): 29.68 inches Hg (1005.0 mb)
Winds: from the NW (320 degrees) at 7 MPH (6 knots; 3.1 m/s)
Visibility: 1.37 miles (2.20 km)
Ceiling: 200 feet AGL
Clouds: scattered clouds at 100 feet AGL
broken clouds at 200 feet AGL
broken clouds at 2000 feet AGL
Weather: RA DZ  (moderate rain, moderate drizzle)

METAR text: EBCI 180820Z VRB02KT 2800 -RADZ SCT002 BKN003 BKN020 15/14 Q1004 TEMPO 1200 RADZ BKN002
Conditions at: EBCI (CHARLEROI/GOSSEL, BE) observed 0820 UTC 18 August 2019
Temperature: 15.0°C (59°F)
Dewpoint: 14.0°C (57°F) [RH = 94%]
Pressure (altimeter): 29.65 inches Hg (1004.0 mb)
Winds: variable direction winds at 2 MPH (2 knots; 1.0 m/s)
Visibility: 1.74 miles (2.80 km)
Ceiling: 300 feet AGL
Clouds: scattered clouds at 200 feet AGL
broken clouds at 300 feet AGL
broken clouds at 2000 feet AGL
Weather: -RA -DZ  (light rain, light drizzle)

METAR text: EBCI 180750Z 11006KT 090V170 2900 RADZ SCT002 BKN003 BKN020 14/14 Q1004 TEMPO 1200 RADZ BKN002
Conditions at: EBCI (CHARLEROI/GOSSEL, BE) observed 0750 UTC 18 August 2019
Temperature: 14.0°C (57°F)
Dewpoint: 14.0°C (57°F) [RH = 100%]
Pressure (altimeter): 29.65 inches Hg (1004.0 mb)
Winds: from the ESE (110 degrees) at 7 MPH (6 knots; 3.1 m/s)
Visibility: 1.80 miles (2.90 km)
Ceiling: 300 feet AGL
Clouds: scattered clouds at 200 feet AGL
broken clouds at 300 feet AGL
broken clouds at 2000 feet AGL
Weather: RA DZ  (moderate rain, moderate drizzle)

METAR text: EBCI 180720Z 11005KT 080V150 3000 -RADZ SCT002 SCT003 BKN020 15/14 Q1004 TEMPO 1200 RADZ BKN002
Conditions at: EBCI (CHARLEROI/GOSSEL, BE) observed 0720 UTC 18 August 2019
Temperature: 15.0°C (59°F)
Dewpoint: 14.0°C (57°F) [RH = 94%]
Pressure (altimeter): 29.65 inches Hg (1004.0 mb)
Winds: from the ESE (110 degrees) at 6 MPH (5 knots; 2.6 m/s)
Visibility: 1.86 miles (2.99 km)
Ceiling: 2000 feet AGL
Clouds: scattered clouds at 200 feet AGL
scattered clouds at 300 feet AGL
broken clouds at 2000 feet AGL
Weather: -RA -DZ  (light rain, light drizzle)

METAR text: EBCI 180650Z 09005KT 060V120 5000 -RADZ FEW002 SCT004 BKN020 14/14 Q1004 TEMPO 1200 RADZ BKN002
Conditions at: EBCI (CHARLEROI/GOSSEL, BE) observed 0650 UTC 18 August 2019
Temperature: 14.0°C (57°F)
Dewpoint: 14.0°C (57°F) [RH = 100%]
Pressure (altimeter): 29.65 inches Hg (1004.0 mb)
Winds: from the E (90 degrees) at 6 MPH (5 knots; 2.6 m/s)
Visibility: 3 miles ( 5 km)
Ceiling: 2000 feet AGL
Clouds: few clouds at 200 feet AGL
scattered clouds at 400 feet AGL
broken clouds at 2000 feet AGL
Weather: -RA -DZ  (light rain, light drizzle)

METAR text: EBCI 180620Z 08005KT 050V110 3000 RADZ SCT001 BKN003 BKN020 14/14 Q1005 TEMPO 1200 RADZ BKN002
Conditions at: EBCI (CHARLEROI/GOSSEL, BE) observed 0620 UTC 18 August 2019
Temperature: 14.0°C (57°F)
Dewpoint: 14.0°C (57°F) [RH = 100%]
Pressure (altimeter): 29.68 inches Hg (1005.0 mb)
Winds: from the E (80 degrees) at 6 MPH (5 knots; 2.6 m/s)
Visibility: 1.86 miles (2.99 km)
Ceiling: 300 feet AGL
Clouds: scattered clouds at 100 feet AGL
broken clouds at 300 feet AGL
broken clouds at 2000 feet AGL
Weather: RA DZ  (moderate rain, moderate drizzle)

METAR text: EBCI 180550Z VRB01KT 3000 RADZ SCT002 BKN004 BKN020 14/14 Q1005 TEMPO 1200 RADZ BKN002
Conditions at: EBCI (CHARLEROI/GOSSEL, BE) observed 0550 UTC 18 August 2019
Temperature: 14.0°C (57°F)
Dewpoint: 14.0°C (57°F) [RH = 100%]
Pressure (altimeter): 29.68 inches Hg (1005.0 mb)
Winds: variable direction winds at 1 MPH (1 knots; 0.5 m/s)
Visibility: 1.86 miles (2.99 km)
Ceiling: 400 feet AGL
Clouds: scattered clouds at 200 feet AGL
broken clouds at 400 feet AGL
broken clouds at 2000 feet AGL
Weather: RA DZ  (moderate rain, moderate drizzle)

METAR text: EBCI 180520Z 33003KT 280V010 2800 RADZ FEW002 BKN005 BKN020 14/14 Q1006 TEMPO 1200 RADZ BKN002
Conditions at: EBCI (CHARLEROI/GOSSEL, BE) observed 0520 UTC 18 August 2019
Temperature: 14.0°C (57°F)
Dewpoint: 14.0°C (57°F) [RH = 100%]
Pressure (altimeter): 29.70 inches Hg (1006.0 mb)
Winds: from the NNW (330 degrees) at 3 MPH (3 knots; 1.5 m/s)
Visibility: 1.74 miles (2.80 km)
Ceiling: 500 feet AGL
Clouds: few clouds at 200 feet AGL
broken clouds at 500 feet AGL
broken clouds at 2000 feet AGL
Weather: RA DZ  (moderate rain, moderate drizzle)

METAR text: EBCI 180450Z 31003KT 5000 -RA SCT005 BKN012 BKN020 15/14 Q1006 TEMPO 2000 RADZ SCT002 BKN004
Conditions at: EBCI (CHARLEROI/GOSSEL, BE) observed 0450 UTC 18 August 2019
Temperature: 15.0°C (59°F)
Dewpoint: 14.0°C (57°F) [RH = 94%]
Pressure (altimeter): 29.70 inches Hg (1006.0 mb)
Winds: from the NW (310 degrees) at 3 MPH (3 knots; 1.5 m/s)
Visibility: 3 miles ( 5 km)
Ceiling: 1200 feet AGL
Clouds: scattered clouds at 500 feet AGL
broken clouds at 1200 feet AGL
broken clouds at 2000 feet AGL
Weather: -RA  (light rain)

METAR text: EBCI 180420Z 15003KT 6000 -RA FEW005 SCT015 BKN030 14/14 Q1006 BECMG 4000 RADZ SCT004 BKN012
Conditions at: EBCI (CHARLEROI/GOSSEL, BE) observed 0420 UTC 18 August 2019
Temperature: 14.0°C (57°F)
Dewpoint: 14.0°C (57°F) [RH = 100%]
Pressure (altimeter): 29.70 inches Hg (1006.0 mb)
Winds: from the SSE (150 degrees) at 3 MPH (3 knots; 1.5 m/s)
Visibility: 4 miles ( 6 km)
Ceiling: 3000 feet AGL
Clouds: few clouds at 500 feet AGL
scattered clouds at 1500 feet AGL
broken clouds at 3000 feet AGL
Weather: -RA  (light rain)

METAR text: EBCI 180350Z 16005KT 9999 -RA BKN030 14/14 Q1007 NOSIG
Conditions at: EBCI (CHARLEROI/GOSSEL, BE) observed 0350 UTC 18 August 2019
Temperature: 14.0°C (57°F)
Dewpoint: 14.0°C (57°F) [RH = 100%]
Pressure (altimeter): 29.73 inches Hg (1007.0 mb)
Winds: from the SSE (160 degrees) at 6 MPH (5 knots; 2.6 m/s)
Visibility: 6 or more miles (10+ km)
Ceiling: 3000 feet AGL
Clouds: broken clouds at 3000 feet AGL
Weather: -RA  (light rain)

METAR text: EBCI 180320Z 17005KT 9999 BKN035 14/14 Q1007 NOSIG
Conditions at: EBCI (CHARLEROI/GOSSEL, BE) observed 0320 UTC 18 August 2019
Temperature: 14.0°C (57°F)
Dewpoint: 14.0°C (57°F) [RH = 100%]
Pressure (altimeter): 29.73 inches Hg (1007.0 mb)
Winds: from the S (170 degrees) at 6 MPH (5 knots; 2.6 m/s)
Visibility: 6 or more miles (10+ km)
Ceiling: 3500 feet AGL
Clouds: broken clouds at 3500 feet AGL
Weather: no significant weather observed at this time

METAR text: EBCI 180250Z 16004KT 9999 FEW015 14/14 Q1007 NOSIG
Conditions at: EBCI (CHARLEROI/GOSSEL, BE) observed 0250 UTC 18 August 2019
Temperature: 14.0°C (57°F)
Dewpoint: 14.0°C (57°F) [RH = 100%]
Pressure (altimeter): 29.73 inches Hg (1007.0 mb)
Winds: from the SSE (160 degrees) at 5 MPH (4 knots; 2.1 m/s)
Visibility: 6 or more miles (10+ km)
Ceiling: at least 12,000 feet AGL
Clouds: few clouds at 1500 feet AGL
Weather: no significant weather observed at this time

METAR text: EBCI 180220Z 17005KT 9999 SCT015 14/14 Q1008 NOSIG
Conditions at: EBCI (CHARLEROI/GOSSEL, BE) observed 0220 UTC 18 August 2019
Temperature: 14.0°C (57°F)
Dewpoint: 14.0°C (57°F) [RH = 100%]
Pressure (altimeter): 29.76 inches Hg (1008.0 mb)
Winds: from the S (170 degrees) at 6 MPH (5 knots; 2.6 m/s)
Visibility: 6 or more miles (10+ km)
Ceiling: at least 12,000 feet AGL
Clouds: scattered clouds at 1500 feet AGL
Weather: no significant weather observed at this time

METAR text: EBCI 180150Z 18005KT 9999 -RA SCT015 14/14 Q1008 NOSIG
Conditions at: EBCI (CHARLEROI/GOSSEL, BE) observed 0150 UTC 18 August 2019
Temperature: 14.0°C (57°F)
Dewpoint: 14.0°C (57°F) [RH = 100%]
Pressure (altimeter): 29.76 inches Hg (1008.0 mb)
Winds: from the S (180 degrees) at 6 MPH (5 knots; 2.6 m/s)
Visibility: 6 or more miles (10+ km)
Ceiling: at least 12,000 feet AGL
Clouds: scattered clouds at 1500 feet AGL
Weather: -RA  (light rain)

METAR text: EBCI 180120Z 19004KT 9999 -RA SCT015 15/14 Q1008 NOSIG
Conditions at: EBCI (CHARLEROI/GOSSEL, BE) observed 0120 UTC 18 August 2019
Temperature: 15.0°C (59°F)
Dewpoint: 14.0°C (57°F) [RH = 94%]
Pressure (altimeter): 29.76 inches Hg (1008.0 mb)
Winds: from the S (190 degrees) at 5 MPH (4 knots; 2.1 m/s)
Visibility: 6 or more miles (10+ km)
Ceiling: at least 12,000 feet AGL
Clouds: scattered clouds at 1500 feet AGL
Weather: -RA  (light rain)

METAR text: EBCI 180050Z 19003KT 150V220 9999 SCT015 15/14 Q1008 NOSIG
Conditions at: EBCI (CHARLEROI/GOSSEL, BE) observed 0050 UTC 18 August 2019
Temperature: 15.0°C (59°F)
Dewpoint: 14.0°C (57°F) [RH = 94%]
Pressure (altimeter): 29.76 inches Hg (1008.0 mb)
Winds: from the S (190 degrees) at 3 MPH (3 knots; 1.5 m/s)
Visibility: 6 or more miles (10+ km)
Ceiling: at least 12,000 feet AGL
Clouds: scattered clouds at 1500 feet AGL
Weather: no significant weather observed at this time

METAR text: EBCI 180020Z 18005KT 8000 -RADZ SCT007 15/14 Q1008 NOSIG
Conditions at: EBCI (CHARLEROI/GOSSEL, BE) observed 0020 UTC 18 August 2019
Temperature: 15.0°C (59°F)
Dewpoint: 14.0°C (57°F) [RH = 94%]
Pressure (altimeter): 29.76 inches Hg (1008.0 mb)
Winds: from the S (180 degrees) at 6 MPH (5 knots; 2.6 m/s)
Visibility: 5 miles ( 8 km)
Ceiling: at least 12,000 feet AGL
Clouds: scattered clouds at 700 feet AGL
Weather: -RA -DZ  (light rain, light drizzle)

METAR text: EBCI 172350Z 19004KT 8000 -RADZ SCT007 15/14 Q1009 NOSIG
Conditions at: EBCI (CHARLEROI/GOSSEL, BE) observed 2350 UTC 17 August 2019
Temperature: 15.0°C (59°F)
Dewpoint: 14.0°C (57°F) [RH = 94%]
Pressure (altimeter): 29.79 inches Hg (1009.0 mb)
Winds: from the S (190 degrees) at 5 MPH (4 knots; 2.1 m/s)
Visibility: 5 miles ( 8 km)
Ceiling: at least 12,000 feet AGL
Clouds: scattered clouds at 700 feet AGL
Weather: -RA -DZ  (light rain, light drizzle)

METAR text: EBCI 172320Z 23004KT 8000 -RADZ SCT007 15/14 Q1009 TEMPO 2000 RADZ SCT003 BKN005
Conditions at: EBCI (CHARLEROI/GOSSEL, BE) observed 2320 UTC 17 August 2019
Temperature: 15.0°C (59°F)
Dewpoint: 14.0°C (57°F) [RH = 94%]
Pressure (altimeter): 29.79 inches Hg (1009.0 mb)
Winds: from the SW (230 degrees) at 5 MPH (4 knots; 2.1 m/s)
Visibility: 5 miles ( 8 km)
Ceiling: at least 12,000 feet AGL
Clouds: scattered clouds at 700 feet AGL
Weather: -RA -DZ  (light rain, light drizzle)

METAR text: EBCI 172250Z 24006KT 8000 -RADZ SCT007 15/14 Q1009 TEMPO 2000 RADZ SCT003 BKN005
Conditions at: EBCI (CHARLEROI/GOSSEL, BE) observed 2250 UTC 17 August 2019
Temperature: 15.0°C (59°F)
Dewpoint: 14.0°C (57°F) [RH = 94%]
Pressure (altimeter): 29.79 inches Hg (1009.0 mb)
Winds: from the WSW (240 degrees) at 7 MPH (6 knots; 3.1 m/s)
Visibility: 5 miles ( 8 km)
Ceiling: at least 12,000 feet AGL
Clouds: scattered clouds at 700 feet AGL
Weather: -RA -DZ  (light rain, light drizzle)

METAR text: EBCI 172220Z 23005KT 8000 -RADZ SCT004 BKN008 15/14 Q1009 TEMPO 2000 RADZ SCT003 BKN005
Conditions at: EBCI (CHARLEROI/GOSSEL, BE) observed 2220 UTC 17 August 2019
Temperature: 15.0°C (59°F)
Dewpoint: 14.0°C (57°F) [RH = 94%]
Pressure (altimeter): 29.79 inches Hg (1009.0 mb)
Winds: from the SW (230 degrees) at 6 MPH (5 knots; 2.6 m/s)
Visibility: 5 miles ( 8 km)
Ceiling: 800 feet AGL
Clouds: scattered clouds at 400 feet AGL
broken clouds at 800 feet AGL
Weather: -RA -DZ  (light rain, light drizzle)

METAR text: EBCI 172150Z 20005KT 4000 RADZ SCT003 BKN007 15/14 Q1008 TEMPO 2000 RADZ SCT003 BKN005
Conditions at: EBCI (CHARLEROI/GOSSEL, BE) observed 2150 UTC 17 August 2019
Temperature: 15.0°C (59°F)
Dewpoint: 14.0°C (57°F) [RH = 94%]
Pressure (altimeter): 29.76 inches Hg (1008.0 mb)
Winds: from the SSW (200 degrees) at 6 MPH (5 knots; 2.6 m/s)
Visibility: 2.49 miles (4.01 km)
Ceiling: 700 feet AGL
Clouds: scattered clouds at 300 feet AGL
broken clouds at 700 feet AGL
Weather: RA DZ  (moderate rain, moderate drizzle)

METAR text: EBCI 172120Z 23005KT 4000 RADZ SCT003 BKN007 15/14 Q1009 TEMPO 2000 RADZ SCT003 BKN005
Conditions at: EBCI (CHARLEROI/GOSSEL, BE) observed 2120 UTC 17 August 2019
Temperature: 15.0°C (59°F)
Dewpoint: 14.0°C (57°F) [RH = 94%]
Pressure (altimeter): 29.79 inches Hg (1009.0 mb)
Winds: from the SW (230 degrees) at 6 MPH (5 knots; 2.6 m/s)
Visibility: 2.49 miles (4.01 km)
Ceiling: 700 feet AGL
Clouds: scattered clouds at 300 feet AGL
broken clouds at 700 feet AGL
Weather: RA DZ  (moderate rain, moderate drizzle)

METAR text: EBCI 172050Z 27007KT 240V300 3000 RADZ SCT003 BKN006 15/15 Q1009 TEMPO 2000 RADZ SCT003 BKN005
Conditions at: EBCI (CHARLEROI/GOSSEL, BE) observed 2050 UTC 17 August 2019
Temperature: 15.0°C (59°F)
Dewpoint: 15.0°C (59°F) [RH = 100%]
Pressure (altimeter): 29.79 inches Hg (1009.0 mb)
Winds: from the W (270 degrees) at 8 MPH (7 knots; 3.6 m/s)
Visibility: 1.86 miles (2.99 km)
Ceiling: 600 feet AGL
Clouds: scattered clouds at 300 feet AGL
broken clouds at 600 feet AGL
Weather: RA DZ  (moderate rain, moderate drizzle)

METAR text: EBCI 172020Z 28004KT 240V310 7000 -RADZ SCT003 BKN006 17/16 Q1009 TEMPO 2000 RADZ SCT003 BKN005
Conditions at: EBCI (CHARLEROI/GOSSEL, BE) observed 2020 UTC 17 August 2019
Temperature: 17.0°C (63°F)
Dewpoint: 16.0°C (61°F) [RH = 94%]
Pressure (altimeter): 29.79 inches Hg (1009.0 mb)
Winds: from the W (280 degrees) at 5 MPH (4 knots; 2.1 m/s)
Visibility: 4 miles ( 7 km)
Ceiling: 600 feet AGL
Clouds: scattered clouds at 300 feet AGL
broken clouds at 600 feet AGL
Weather: -RA -DZ  (light rain, light drizzle)

METAR text: EBCI 171950Z 23005KT 9999 -RADZ SCT006 BKN008 17/16 Q1009 TEMPO 2000 RADZ SCT003 BKN005
Conditions at: EBCI (CHARLEROI/GOSSEL, BE) observed 1950 UTC 17 August 2019
Temperature: 17.0°C (63°F)
Dewpoint: 16.0°C (61°F) [RH = 94%]
Pressure (altimeter): 29.79 inches Hg (1009.0 mb)
Winds: from the SW (230 degrees) at 6 MPH (5 knots; 2.6 m/s)
Visibility: 6 or more miles (10+ km)
Ceiling: 800 feet AGL
Clouds: scattered clouds at 600 feet AGL
broken clouds at 800 feet AGL
Weather: -RA -DZ  (light rain, light drizzle)

METAR text: EBCI 171920Z 26006KT 8000 -RADZ FEW004 SCT006 BKN008 17/16 Q1009 TEMPO 2000 RADZ SCT003 BKN005
Conditions at: EBCI (CHARLEROI/GOSSEL, BE) observed 1920 UTC 17 August 2019
Temperature: 17.0°C (63°F)
Dewpoint: 16.0°C (61°F) [RH = 94%]
Pressure (altimeter): 29.79 inches Hg (1009.0 mb)
Winds: from the W (260 degrees) at 7 MPH (6 knots; 3.1 m/s)
Visibility: 5 miles ( 8 km)
Ceiling: 800 feet AGL
Clouds: few clouds at 400 feet AGL
scattered clouds at 600 feet AGL
broken clouds at 800 feet AGL
Weather: -RA -DZ  (light rain, light drizzle)

METAR text: EBCI 171850Z 25007KT 220V280 2000 RADZ FEW003 SCT005 BKN007 17/16 Q1009 TEMPO 2000 RADZ SCT003 BKN005
Conditions at: EBCI (CHARLEROI/GOSSEL, BE) observed 1850 UTC 17 August 2019
Temperature: 17.0°C (63°F)
Dewpoint: 16.0°C (61°F) [RH = 94%]
Pressure (altimeter): 29.79 inches Hg (1009.0 mb)
Winds: from the WSW (250 degrees) at 8 MPH (7 knots; 3.6 m/s)
Visibility: 1.24 miles (2.00 km)
Ceiling: 700 feet AGL
Clouds: few clouds at 300 feet AGL
scattered clouds at 500 feet AGL
broken clouds at 700 feet AGL
Weather: RA DZ  (moderate rain, moderate drizzle)

METAR text: EBCI 171820Z 20009KT 9999 BKN007 18/17 Q1009 RERA TEMPO 3000 RADZ SCT003 BKN005
Conditions at: EBCI (CHARLEROI/GOSSEL, BE) observed 1820 UTC 17 August 2019
Temperature: 18.0°C (64°F)
Dewpoint: 17.0°C (63°F) [RH = 94%]
Pressure (altimeter): 29.79 inches Hg (1009.0 mb)
Winds: from the SSW (200 degrees) at 10 MPH (9 knots; 4.6 m/s)
Visibility: 6 or more miles (10+ km)
Ceiling: 700 feet AGL
Clouds: broken clouds at 700 feet AGL
Weather: no significant weather observed at this time

METAR text: EBCI 171750Z 21008KT 9999 BKN007 18/17 Q1009 RERA NOSIG
Conditions at: EBCI (CHARLEROI/GOSSEL, BE) observed 1750 UTC 17 August 2019
Temperature: 18.0°C (64°F)
Dewpoint: 17.0°C (63°F) [RH = 94%]
Pressure (altimeter): 29.79 inches Hg (1009.0 mb)
Winds: from the SSW (210 degrees) at 9 MPH (8 knots; 4.1 m/s)
Visibility: 6 or more miles (10+ km)
Ceiling: 700 feet AGL
Clouds: broken clouds at 700 feet AGL
Weather: no significant weather observed at this time

METAR text: EBCI 171720Z 21010KT 9999 BKN007 18/17 Q1009 RERA NOSIG
Conditions at: EBCI (CHARLEROI/GOSSEL, BE) observed 1720 UTC 17 August 2019
Temperature: 18.0°C (64°F)
Dewpoint: 17.0°C (63°F) [RH = 94%]
Pressure (altimeter): 29.79 inches Hg (1009.0 mb)
Winds: from the SSW (210 degrees) at 12 MPH (10 knots; 5.1 m/s)
Visibility: 6 or more miles (10+ km)
Ceiling: 700 feet AGL
Clouds: broken clouds at 700 feet AGL
Weather: no significant weather observed at this time

METAR text: EBCI 171650Z 19011KT 9999 -RA BKN008 18/17 Q1009 NOSIG
Conditions at: EBCI (CHARLEROI/GOSSEL, BE) observed 1650 UTC 17 August 2019
Temperature: 18.0°C (64°F)
Dewpoint: 17.0°C (63°F) [RH = 94%]
Pressure (altimeter): 29.79 inches Hg (1009.0 mb)
Winds: from the S (190 degrees) at 13 MPH (11 knots; 5.7 m/s)
Visibility: 6 or more miles (10+ km)
Ceiling: 800 feet AGL
Clouds: broken clouds at 800 feet AGL
Weather: -RA  (light rain)

METAR text: EBCI 171620Z 21012KT 9999 -RA BKN009 18/17 Q1009 NOSIG
Conditions at: EBCI (CHARLEROI/GOSSEL, BE) observed 1620 UTC 17 August 2019
Temperature: 18.0°C (64°F)
Dewpoint: 17.0°C (63°F) [RH = 94%]
Pressure (altimeter): 29.79 inches Hg (1009.0 mb)
Winds: from the SSW (210 degrees) at 14 MPH (12 knots; 6.2 m/s)
Visibility: 6 or more miles (10+ km)
Ceiling: 900 feet AGL
Clouds: broken clouds at 900 feet AGL
Weather: -RA  (light rain)

METAR text: EBCI 171550Z 21012KT 180V240 9999 SCT006 BKN009 18/17 Q1009 NOSIG
Conditions at: EBCI (CHARLEROI/GOSSEL, BE) observed 1550 UTC 17 August 2019
Temperature: 18.0°C (64°F)
Dewpoint: 17.0°C (63°F) [RH = 94%]
Pressure (altimeter): 29.79 inches Hg (1009.0 mb)
Winds: from the SSW (210 degrees) at 14 MPH (12 knots; 6.2 m/s)
Visibility: 6 or more miles (10+ km)
Ceiling: 900 feet AGL
Clouds: scattered clouds at 600 feet AGL
broken clouds at 900 feet AGL
Weather: no significant weather observed at this time

Forecast for: EBCI (CHARLEROI/GOSSEL, BE)
Text: TAF EBCI 182300Z 1900/2006 23008KT CAVOK
Forecast period: 0000 UTC 19 August 2019 to 0600 UTC 20 August 2019
Forecast type: FROM: standard forecast or significant change
Winds: from the SW (230 degrees) at 9 MPH (8 knots; 4.1 m/s)
Visibility: 6 or more miles 10+ km)
Ceiling: unknown
Clouds: missing
Weather: NSW  (no significant weather)
Text: PROB30
Forecast period: 1100 to 1700 UTC 19 August 2019
Forecast type: TEMPORARY: The following changes expected for less than half the time period
Visibility: missing
Ceiling: unknown
Clouds: missing
Weather: SHRA  (rain showers)